This demonstration page uses our WeatherBlox Daily Observations layout. Learn more.

39.29038, -76.61219

Hourly Observations for June 15, 2019

Temp ( °F °C ) Dew Point ( °F °C ) Humidity (%) Winds ( mph kmh ) Pressure ( in mb ) Visibility ( mi km ) Precip ( " mm )
12:54 am 00:54 undefined 66 18.9 48 8.9 52 52 undefined N/A 30.12 1020 N/A 0 0
1:54 am 01:54 undefined 64 17.8 49 9.4 58 58 undefined N/A 30.12 1020 N/A 0 0
2:54 am 02:54 undefined 63 17.2 50 10 63 63 undefined N/A 30.12 1020 N/A 0 0
3:54 am 03:54 undefined 62 16.7 50 10 65 65 undefined N/A 30.09 1019 N/A 0 0
4:54 am 04:54 undefined 61 16.1 50 10 67 67 undefined N/A 30.09 1019 N/A 0 0
5:54 am 05:54 undefined 61 16.1 50 10 67 67 undefined N/A 30.12 1020 N/A 0 0
6:54 am 06:54 undefined 61 16.1 52 11.1 72 72 undefined N/A 30.12 1020 N/A 0 0
7:54 am 07:54 undefined 64 17.8 53 11.7 68 68 undefined N/A 30.15 1021 N/A 0 0
8:54 am 08:54 undefined 66 18.9 54 12.2 65 65 undefined N/A 30.15 1021 N/A 0 0
9:54 am 09:54 undefined 68 20 54 12.2 61 61 undefined N/A 30.15 1021 N/A 0 0
10:54 am 10:54 undefined 70 21.1 55 12.8 59 59 undefined N/A 30.15 1021 N/A 0 0
11:54 am 11:54 undefined 75 23.9 55 12.8 50 50 undefined N/A 30.15 1021 N/A 0 0
12:54 pm 12:54 undefined 80 26.7 55 12.8 42 42 undefined N/A 30.12 1020 N/A 0 0
1:54 pm 13:54 undefined 82 27.8 55 12.8 40 40 undefined N/A 30.06 1018 N/A 0 0
2:54 pm 14:54 undefined 83 28.3 54 12.2 37 37 undefined N/A 30.03 1017 N/A 0 0
3:54 pm 15:54 undefined 84 28.9 54 12.2 36 36 undefined N/A 30 1016 N/A 0 0
4:54 pm 16:54 undefined 83 28.3 50 10 32 32 undefined N/A 30 1016 N/A 0 0
5:54 pm 17:54 undefined 82 27.8 51 10.6 34 34 undefined N/A 30 1016 N/A 0 0
6:54 pm 18:54 undefined 81 27.2 52 11.1 37 37 undefined N/A 30 1016 N/A 0 0
7:54 pm 19:54 undefined 79 26.1 53 11.7 41 41 undefined N/A 30 1016 N/A 0 0
8:54 pm 20:54 undefined 78 25.6 53 11.7 42 42 undefined N/A 30 1016 N/A 0 0
9:54 pm 21:54 undefined 77 25 54 12.2 45 45 undefined N/A 30 1016 N/A 0 0
10:54 pm 22:54 undefined 74 23.3 55 12.8 52 52 undefined N/A 29.97 1015 N/A 0 0
11:54 pm 23:54 undefined 73 22.8 55 12.8 53 53 undefined N/A 29.97 1015 N/A 0 0

Powered by AerisWeather